Time;durP1;ratioP1;P1;durP2;ratioP2;P2;SDS_P1;SDS_P2;PMS_P1;PMS_P2;Temp;Humidity;BMP_temperature;BMP_pressure;BME280_temperature;BME280_humidity;BME280_pressure;Samples;Min_cycle;Max_cycle;Signal;HPM_P1;HPM_P2
2024/03/10 00:01:20;;;;;;;;;;;23.20;59.00;;;;;;5072613;28;20010;-36
2024/03/10 00:03:46;;;;;;;;;;;23.20;59.00;;;;;;5073842;28;20750;-48
2024/03/10 00:06:12;;;;;;;;;;;23.20;59.00;;;;;;5071544;28;19923;-48
2024/03/10 00:08:40;;;;;;;;;;;23.20;59.00;;;;;;5072961;28;19913;-36
2024/03/10 00:11:06;;;;;;;;;;;23.20;59.00;;;;;;5070725;28;19912;-37
2024/03/10 00:13:32;;;;;;;;;;;23.20;59.00;;;;;;5074384;28;19920;-38
2024/03/10 00:15:58;;;;;;;;;;;23.20;59.00;;;;;;5069349;28;19987;-37
2024/03/10 00:18:24;;;;;;;;;;;23.20;59.00;;;;;;5071856;28;19913;-37
2024/03/10 00:20:50;;;;;;;;;;;23.20;59.00;;;;;;5073316;28;19913;-36
2024/03/10 00:23:15;;;;;;;;;;;23.20;59.00;;;;;;5073178;28;19917;-37
2024/03/10 00:25:43;;;;;;;;;;;23.20;59.10;;;;;;5075679;28;19917;-37
2024/03/10 00:28:09;;;;;;;;;;;23.10;59.00;;;;;;5075927;28;19912;-37
2024/03/10 00:30:34;;;;;;;;;;;23.10;58.90;;;;;;5070668;28;19919;-37
2024/03/10 00:33:00;;;;;;;;;;;23.10;58.90;;;;;;5066284;28;19912;-36
2024/03/10 00:35:26;;;;;;;;;;;23.10;58.80;;;;;;5070533;28;19909;-38
2024/03/10 00:37:52;;;;;;;;;;;23.10;58.80;;;;;;5069173;28;20588;-38
2024/03/10 00:40:19;;;;;;;;;;;23.10;58.80;;;;;;5076432;28;19908;-36
2024/03/10 00:42:45;;;;;;;;;;;23.10;58.80;;;;;;5073053;28;20024;-37
2024/03/10 00:45:11;;;;;;;;;;;23.10;58.80;;;;;;5071530;28;21483;-37
2024/03/10 00:47:37;;;;;;;;;;;23.10;58.70;;;;;;5078699;28;19953;-37
2024/03/10 00:50:04;;;;;;;;;;;23.10;58.70;;;;;;5070066;28;19934;-37
2024/03/10 00:52:30;;;;;;;;;;;23.00;59.20;;;;;;5077284;28;19913;-38
2024/03/10 00:54:56;;;;;;;;;;;23.00;58.60;;;;;;5071426;28;19912;-37
2024/03/10 00:57:22;;;;;;;;;;;23.00;58.60;;;;;;5070219;28;19919;-37
2024/03/10 00:59:48;;;;;;;;;;;23.00;58.50;;;;;;5072357;28;19908;-37
2024/03/10 01:02:14;;;;;;;;;;;23.00;58.50;;;;;;5073528;28;20015;-37
2024/03/10 01:04:40;;;;;;;;;;;23.00;58.40;;;;;;5069660;28;19913;-36
2024/03/10 01:07:06;;;;;;;;;;;22.90;58.40;;;;;;5074654;28;19914;-37
2024/03/10 01:09:33;;;;;;;;;;;22.90;58.40;;;;;;5081477;28;19912;-36
2024/03/10 01:11:59;;;;;;;;;;;22.90;58.30;;;;;;5071901;28;19919;-37
2024/03/10 01:14:25;;;;;;;;;;;22.90;58.30;;;;;;5072905;28;20302;-37
2024/03/10 01:16:51;;;;;;;;;;;22.90;58.30;;;;;;5073219;28;19923;-37
2024/03/10 01:19:17;;;;;;;;;;;22.90;58.30;;;;;;5080596;28;19912;-37
2024/03/10 01:21:46;;;;;;;;;;;22.90;58.20;;;;;;5079846;28;19971;-37
2024/03/10 01:24:12;;;;;;;;;;;22.90;58.20;;;;;;5077704;28;19978;-37
2024/03/10 01:26:39;;;;;;;;;;;22.90;58.10;;;;;;5077419;28;19912;-38
2024/03/10 01:29:05;;;;;;;;;;;22.90;58.10;;;;;;5073718;28;20638;-38
2024/03/10 01:31:31;;;;;;;;;;;22.90;58.10;;;;;;5079763;28;19912;-38
2024/03/10 01:34:01;;;;;;;;;;;22.90;58.10;;;;;;5073981;28;19919;-36
2024/03/10 01:36:28;;;;;;;;;;;22.80;58.00;;;;;;5077717;28;19938;-37
2024/03/10 01:38:54;;;;;;;;;;;22.80;58.00;;;;;;5080516;28;19947;-37
2024/03/10 01:41:21;;;;;;;;;;;22.80;58.00;;;;;;5073166;28;19912;-39
2024/03/10 01:43:49;;;;;;;;;;;22.80;58.00;;;;;;5072988;28;19983;-36
2024/03/10 01:46:15;;;;;;;;;;;22.80;58.00;;;;;;5073344;28;19919;-37
2024/03/10 01:48:42;;;;;;;;;;;22.80;57.90;;;;;;5071783;28;19960;-37
2024/03/10 01:51:09;;;;;;;;;;;22.80;57.80;;;;;;5080319;28;19912;-37
2024/03/10 01:53:37;;;;;;;;;;;22.80;57.80;;;;;;5079335;28;19912;-37
2024/03/10 01:56:06;;;;;;;;;;;22.80;57.80;;;;;;5064842;28;19912;-36
2024/03/10 01:58:32;;;;;;;;;;;22.80;57.80;;;;;;5077554;28;19919;-37
2024/03/10 02:01:01;;;;;;;;;;;22.80;57.80;;;;;;5080328;28;19918;-37
2024/03/10 02:03:28;;;;;;;;;;;22.80;57.80;;;;;;5069247;28;19943;-37
2024/03/10 02:05:53;;;;;;;;;;;22.70;57.80;;;;;;5083435;28;19912;-37
2024/03/10 02:08:20;;;;;;;;;;;22.70;57.70;;;;;;5084242;28;19918;-37
2024/03/10 02:10:48;;;;;;;;;;;22.80;57.70;;;;;;5081222;28;19913;-39
2024/03/10 02:13:17;;;;;;;;;;;22.80;57.60;;;;;;5071974;28;19916;-37
2024/03/10 02:16:06;;;;;;;;;;;22.80;57.60;;;;;;5068089;28;19963;-37
2024/03/10 02:18:32;;;;;;;;;;;22.80;57.50;;;;;;5082138;28;19908;-37
2024/03/10 02:20:59;;;;;;;;;;;22.70;57.50;;;;;;5083966;28;19912;-37
2024/03/10 02:23:30;;;;;;;;;;;22.70;57.50;;;;;;5082125;28;19920;-37
2024/03/10 02:25:58;;;;;;;;;;;22.70;57.50;;;;;;5079562;28;19940;-38
2024/03/10 02:28:35;;;;;;;;;;;22.70;57.50;;;;;;5081779;28;19951;-37
2024/03/10 02:47:12;;;;;;;;;;;22.70;57.50;;;;;;5075812;28;19916;-37
2024/03/10 02:47:35;;;;;;;;;;;22.70;57.30;;;;;;5081879;28;19920;-38
2024/03/10 02:50:05;;;;;;;;;;;22.70;57.40;;;;;;5081974;28;19908;-37
2024/03/10 02:52:34;;;;;;;;;;;22.70;57.30;;;;;;5082226;28;19923;-37
2024/03/10 02:55:01;;;;;;;;;;;22.70;57.30;;;;;;5076551;28;20482;-37
2024/03/10 02:57:31;;;;;;;;;;;22.70;57.20;;;;;;5083900;28;20009;-37
2024/03/10 02:59:57;;;;;;;;;;;22.70;57.30;;;;;;5076685;28;19919;-37
2024/03/10 03:02:24;;;;;;;;;;;22.70;57.30;;;;;;5077108;28;20040;-37
2024/03/10 03:04:51;;;;;;;;;;;22.70;57.30;;;;;;5072820;28;20516;-36
2024/03/10 03:07:18;;;;;;;;;;;22.60;57.30;;;;;;5078187;28;19912;-36
2024/03/10 03:09:47;;;;;;;;;;;22.70;57.40;;;;;;5086614;28;19912;-38
2024/03/10 03:12:14;;;;;;;;;;;22.70;57.30;;;;;;5076226;28;19919;-38
2024/03/10 03:14:40;;;;;;;;;;;22.70;57.30;;;;;;5094735;28;19914;-38
2024/03/10 03:17:06;;;;;;;;;;;22.70;57.40;;;;;;5085049;28;19909;-38
2024/03/10 03:19:33;;;;;;;;;;;22.70;57.40;;;;;;5079025;28;20433;-38
2024/03/10 03:22:02;;;;;;;;;;;22.70;57.40;;;;;;5073692;28;19912;-38
2024/03/10 03:24:28;;;;;;;;;;;22.60;57.40;;;;;;5076520;28;19913;-38
2024/03/10 03:26:55;;;;;;;;;;;22.60;57.30;;;;;;5075611;28;19951;-37
2024/03/10 03:29:21;;;;;;;;;;;22.60;57.30;;;;;;5076182;28;19983;-38
2024/03/10 03:31:48;;;;;;;;;;;22.70;57.30;;;;;;5072388;28;19963;-38
2024/03/10 03:34:15;;;;;;;;;;;22.70;57.30;;;;;;5072074;28;19913;-38
2024/03/10 03:36:41;;;;;;;;;;;22.70;57.20;;;;;;5082010;28;20069;-38
2024/03/10 03:39:11;;;;;;;;;;;22.70;57.20;;;;;;5070534;28;20452;-39
2024/03/10 03:41:40;;;;;;;;;;;22.60;57.10;;;;;;5065160;28;19916;-38
2024/03/10 03:44:10;;;;;;;;;;;22.60;57.10;;;;;;5065305;28;19928;-38
2024/03/10 03:46:36;;;;;;;;;;;22.60;57.10;;;;;;5066103;28;19912;-39
2024/03/10 03:49:02;;;;;;;;;;;22.60;57.00;;;;;;5064257;28;20066;-40
2024/03/10 03:51:30;;;;;;;;;;;22.70;57.00;;;;;;5065556;28;19913;-37
2024/03/10 03:53:56;;;;;;;;;;;22.70;56.90;;;;;;5074561;28;19913;-38
2024/03/10 03:56:22;;;;;;;;;;;22.70;56.90;;;;;;5072341;28;19931;-38
2024/03/10 03:58:49;;;;;;;;;;;22.70;56.90;;;;;;5063647;28;19915;-41
2024/03/10 04:01:16;;;;;;;;;;;22.60;56.80;;;;;;5077875;28;19919;-38
2024/03/10 04:03:43;;;;;;;;;;;22.60;56.80;;;;;;5072643;28;19917;-39
2024/03/10 04:06:09;;;;;;;;;;;22.60;56.80;;;;;;5071714;28;19920;-38
2024/03/10 04:08:36;;;;;;;;;;;22.60;56.80;;;;;;5080201;28;19913;-38
2024/03/10 04:11:02;;;;;;;;;;;22.70;56.70;;;;;;5086607;28;19912;-39
2024/03/10 04:13:29;;;;;;;;;;;22.70;56.70;;;;;;5080461;28;19955;-38
2024/03/10 04:15:55;;;;;;;;;;;22.60;56.60;;;;;;5071407;28;19913;-37
2024/03/10 04:18:21;;;;;;;;;;;22.60;56.60;;;;;;5070892;28;19955;-37
2024/03/10 04:20:47;;;;;;;;;;;22.60;56.60;;;;;;5063559;28;19913;-37
2024/03/10 04:23:16;;;;;;;;;;;22.60;56.60;;;;;;5070643;28;19942;-37
2024/03/10 04:25:43;;;;;;;;;;;22.60;56.50;;;;;;5068111;28;20751;-37
2024/03/10 04:28:09;;;;;;;;;;;22.60;56.50;;;;;;5075793;28;20557;-37
2024/03/10 04:30:35;;;;;;;;;;;22.60;56.40;;;;;;5075595;28;19919;-37
2024/03/10 04:33:02;;;;;;;;;;;22.60;56.40;;;;;;5068566;28;20019;-37
2024/03/10 04:35:28;;;;;;;;;;;22.60;56.40;;;;;;5069619;28;19909;-37
2024/03/10 04:37:54;;;;;;;;;;;22.60;56.30;;;;;;5073418;28;19920;-37
2024/03/10 04:40:20;;;;;;;;;;;22.60;56.40;;;;;;5074224;28;19912;-37
2024/03/10 04:42:47;;;;;;;;;;;22.60;56.30;;;;;;5072279;28;19936;-38
2024/03/10 04:45:13;;;;;;;;;;;22.60;56.30;;;;;;5080731;28;19908;-37
2024/03/10 04:47:39;;;;;;;;;;;22.60;56.30;;;;;;5078304;28;20358;-37
2024/03/10 04:50:06;;;;;;;;;;;22.60;56.20;;;;;;5067919;28;19912;-38
2024/03/10 04:52:32;;;;;;;;;;;22.60;56.20;;;;;;5080202;28;19919;-38
2024/03/10 04:54:58;;;;;;;;;;;22.60;56.20;;;;;;5071961;28;19936;-38
2024/03/10 04:57:24;;;;;;;;;;;22.50;56.10;;;;;;5080705;28;19942;-38
2024/03/10 04:59:50;;;;;;;;;;;22.50;56.10;;;;;;5074022;28;19963;-38
2024/03/10 05:02:16;;;;;;;;;;;22.50;56.10;;;;;;5076266;28;19921;-38
2024/03/10 05:04:43;;;;;;;;;;;22.60;56.10;;;;;;5079455;28;19919;-38
2024/03/10 05:07:09;;;;;;;;;;;22.60;56.00;;;;;;5075344;28;19912;-37
2024/03/10 05:09:35;;;;;;;;;;;22.60;56.00;;;;;;5079290;28;19913;-37
2024/03/10 05:12:03;;;;;;;;;;;22.50;55.90;;;;;;5083231;28;20404;-37
2024/03/10 05:14:29;;;;;;;;;;;22.50;55.90;;;;;;5073766;28;19923;-37
2024/03/10 05:16:54;;;;;;;;;;;22.50;55.90;;;;;;5073708;28;19908;-37
2024/03/10 05:19:20;;;;;;;;;;;22.50;55.90;;;;;;5080647;28;19920;-38
2024/03/10 05:21:46;;;;;;;;;;;22.60;55.90;;;;;;5080204;28;19934;-36
2024/03/10 05:24:12;;;;;;;;;;;22.60;55.80;;;;;;5077580;28;19909;-38
2024/03/10 05:26:38;;;;;;;;;;;22.60;55.70;;;;;;5078182;28;19913;-38
2024/03/10 05:29:04;;;;;;;;;;;22.50;55.70;;;;;;5080581;28;20646;-37
2024/03/10 05:31:33;;;;;;;;;;;22.50;55.70;;;;;;5079957;28;19912;-37
2024/03/10 05:34:00;;;;;;;;;;;22.50;55.70;;;;;;5071965;28;19967;-37
2024/03/10 05:36:29;;;;;;;;;;;22.50;55.60;;;;;;5079228;28;19912;-37
2024/03/10 05:38:55;;;;;;;;;;;22.60;55.70;;;;;;5082237;28;20497;-37
2024/03/10 05:41:21;;;;;;;;;;;22.60;55.60;;;;;;5084634;28;20465;-37
2024/03/10 05:43:47;;;;;;;;;;;22.50;55.60;;;;;;5076315;28;19928;-36
2024/03/10 05:46:13;;;;;;;;;;;22.50;56.00;;;;;;5075044;28;19948;-38
2024/03/10 05:48:41;;;;;;;;;;;22.50;55.50;;;;;;5083957;28;19919;-37
2024/03/10 05:51:08;;;;;;;;;;;22.50;55.50;;;;;;5084137;28;19915;-37
2024/03/10 05:53:36;;;;;;;;;;;22.50;55.40;;;;;;5083459;28;19955;-37
2024/03/10 05:56:03;;;;;;;;;;;22.50;55.30;;;;;;5074245;28;20647;-37
2024/03/10 05:58:32;;;;;;;;;;;22.50;55.30;;;;;;5067298;28;19935;-37
2024/03/10 06:00:57;;;;;;;;;;;22.50;55.30;;;;;;5076392;28;19935;-38
2024/03/10 06:03:23;;;;;;;;;;;22.50;55.20;;;;;;5084028;28;19920;-37
2024/03/10 06:05:49;;;;;;;;;;;22.40;55.20;;;;;;5078091;28;19913;-37
2024/03/10 06:08:15;;;;;;;;;;;22.40;55.20;;;;;;5084420;28;19951;-38
2024/03/10 06:10:41;;;;;;;;;;;22.50;55.20;;;;;;5077003;28;19916;-37
2024/03/10 06:13:07;;;;;;;;;;;22.50;55.10;;;;;;5076780;28;20312;-38
2024/03/10 06:15:33;;;;;;;;;;;22.50;55.10;;;;;;5081680;28;19958;-39
2024/03/10 06:26:12;;;;;;;;;;;22.40;55.00;;;;;;5081745;28;19967;-38
2024/03/10 06:28:41;;;;;;;;;;;22.50;55.00;;;;;;5078428;28;20437;-38
2024/03/10 06:31:07;;;;;;;;;;;22.50;54.90;;;;;;5083337;28;19908;-37
2024/03/10 06:33:38;;;;;;;;;;;22.50;54.90;;;;;;5075587;28;19919;-37
2024/03/10 06:36:10;;;;;;;;;;;22.50;54.90;;;;;;5080704;28;19913;-38
2024/03/10 06:38:38;;;;;;;;;;;22.40;54.90;;;;;;5083021;28;19969;-38
2024/03/10 06:41:05;;;;;;;;;;;22.40;54.80;;;;;;5083361;28;19958;-38
2024/03/10 06:43:32;;;;;;;;;;;22.40;54.80;;;;;;5078048;28;19950;-38
2024/03/10 06:45:58;;;;;;;;;;;22.50;54.80;;;;;;5077350;28;19912;-38
2024/03/10 06:48:24;;;;;;;;;;;22.50;54.80;;;;;;5074831;28;20358;-38
2024/03/10 06:50:50;;;;;;;;;;;22.50;54.80;;;;;;5077460;28;19921;-38
2024/03/10 06:53:16;;;;;;;;;;;22.40;54.70;;;;;;5075329;28;19921;-38
2024/03/10 06:55:41;;;;;;;;;;;22.40;54.70;;;;;;5075132;28;19920;-39
2024/03/10 06:58:07;;;;;;;;;;;22.40;54.70;;;;;;5072790;28;19913;-38
2024/03/10 07:00:35;;;;;;;;;;;22.40;54.60;;;;;;5074651;28;20430;-38
2024/03/10 07:03:02;;;;;;;;;;;22.40;54.60;;;;;;5071070;28;19921;-37
2024/03/10 07:05:28;;;;;;;;;;;22.50;54.60;;;;;;5077261;28;19919;-37
2024/03/10 07:07:53;;;;;;;;;;;22.40;54.50;;;;;;5074039;28;19908;-37
2024/03/10 07:10:19;;;;;;;;;;;22.40;54.50;;;;;;5072528;28;19935;-37
2024/03/10 07:12:45;;;;;;;;;;;22.40;54.50;;;;;;5074816;28;19922;-37
2024/03/10 07:15:11;;;;;;;;;;;22.40;54.50;;;;;;5075103;28;20808;-37
2024/03/10 07:17:40;;;;;;;;;;;22.40;54.40;;;;;;5071502;28;19912;-38
2024/03/10 07:20:07;;;;;;;;;;;22.40;54.30;;;;;;5067950;28;19912;-37
2024/03/10 07:22:37;;;;;;;;;;;22.50;54.30;;;;;;5076230;28;19927;-37
2024/03/10 07:25:06;;;;;;;;;;;22.40;54.30;;;;;;5078850;28;19912;-37
2024/03/10 07:27:32;;;;;;;;;;;22.40;54.20;;;;;;5074485;28;19959;-37
2024/03/10 07:29:58;;;;;;;;;;;22.40;54.20;;;;;;5070155;28;19923;-37
2024/03/10 07:32:26;;;;;;;;;;;22.30;54.10;;;;;;5071405;28;19913;-37
2024/03/10 07:34:54;;;;;;;;;;;22.40;54.10;;;;;;5070930;28;19916;-37
2024/03/10 07:37:21;;;;;;;;;;;22.40;54.00;;;;;;5075994;28;19916;-38
2024/03/10 07:39:47;;;;;;;;;;;22.40;54.00;;;;;;5073341;28;19912;-37
2024/03/10 07:42:15;;;;;;;;;;;22.40;53.90;;;;;;5077006;28;19924;-37
2024/03/10 07:44:41;;;;;;;;;;;22.30;53.80;;;;;;5077473;28;19916;-37
2024/03/10 07:47:07;;;;;;;;;;;22.30;53.90;;;;;;5070898;28;20285;-37
2024/03/10 07:49:33;;;;;;;;;;;22.30;53.70;;;;;;5076823;28;19909;-37
2024/03/10 07:51:59;;;;;;;;;;;22.40;53.70;;;;;;5075362;28;19999;-37
2024/03/10 07:54:25;;;;;;;;;;;22.40;53.70;;;;;;5075120;28;19908;-37
2024/03/10 07:56:53;;;;;;;;;;;22.40;53.60;;;;;;5080819;28;19920;-37
2024/03/10 07:59:21;;;;;;;;;;;22.30;53.50;;;;;;5072870;28;19915;-37
2024/03/10 08:01:49;;;;;;;;;;;22.30;53.60;;;;;;5072017;28;19935;-38
2024/03/10 08:04:15;;;;;;;;;;;22.30;53.50;;;;;;5073414;28;19920;-38
2024/03/10 08:06:41;;;;;;;;;;;22.30;53.40;;;;;;5068470;28;19912;-38
2024/03/10 08:09:07;;;;;;;;;;;22.40;53.40;;;;;;5075083;28;19922;-38
2024/03/10 08:11:33;;;;;;;;;;;22.40;53.40;;;;;;5072657;28;19915;-37
2024/03/10 08:13:59;;;;;;;;;;;22.30;53.30;;;;;;5068229;28;19912;-37
2024/03/10 08:16:25;;;;;;;;;;;22.30;53.30;;;;;;5070955;28;20011;-38
2024/03/10 08:18:51;;;;;;;;;;;22.30;53.30;;;;;;5076776;28;19966;-37
2024/03/10 08:21:18;;;;;;;;;;;22.30;53.30;;;;;;5072835;28;19912;-38
2024/03/10 08:23:44;;;;;;;;;;;22.30;53.30;;;;;;5070233;28;19931;-37
2024/03/10 08:26:10;;;;;;;;;;;22.30;53.20;;;;;;5073054;28;19951;-37
2024/03/10 08:28:36;;;;;;;;;;;22.30;53.20;;;;;;5070496;28;19912;-38
2024/03/10 08:31:03;;;;;;;;;;;22.30;53.10;;;;;;5067258;28;19916;-38
2024/03/10 08:33:29;;;;;;;;;;;22.20;53.10;;;;;;5072646;28;20566;-38
2024/03/10 08:35:55;;;;;;;;;;;22.30;53.00;;;;;;5071576;28;19934;-37
2024/03/10 08:38:21;;;;;;;;;;;22.30;53.00;;;;;;5065890;28;19920;-37
2024/03/10 08:40:47;;;;;;;;;;;22.30;52.90;;;;;;5076567;28;19920;-37
2024/03/10 08:43:13;;;;;;;;;;;22.30;52.90;;;;;;5072434;28;19917;-37
2024/03/10 08:45:39;;;;;;;;;;;22.30;52.90;;;;;;5076966;28;19936;-37
2024/03/10 08:48:09;;;;;;;;;;;22.30;52.90;;;;;;5078479;28;19940;-38
2024/03/10 08:50:35;;;;;;;;;;;22.20;52.80;;;;;;5072833;28;20007;-36
2024/03/10 08:53:04;;;;;;;;;;;22.20;52.70;;;;;;5067311;28;19947;-39
2024/03/10 08:55:30;;;;;;;;;;;22.30;52.80;;;;;;5072102;28;20361;-39
2024/03/10 08:57:56;;;;;;;;;;;22.30;52.70;;;;;;5073093;28;19913;-43
2024/03/10 09:00:21;;;;;;;;;;;22.30;52.70;;;;;;5072960;28;20341;-38
2024/03/10 09:02:49;;;;;;;;;;;22.20;52.60;;;;;;5067127;28;19996;-37
2024/03/10 09:05:15;;;;;;;;;;;22.20;52.60;;;;;;5081588;28;19912;-37
2024/03/10 09:07:44;;;;;;;;;;;22.20;52.60;;;;;;5080427;28;19938;-37
2024/03/10 09:10:10;;;;;;;;;;;22.20;52.50;;;;;;5069364;28;20793;-37
2024/03/10 09:12:36;;;;;;;;;;;22.30;52.60;;;;;;5076584;28;19912;-37
2024/03/10 09:15:02;;;;;;;;;;;22.30;52.60;;;;;;5081193;28;19916;-37
2024/03/10 09:17:29;;;;;;;;;;;22.20;52.50;;;;;;5076150;28;19917;-37
2024/03/10 09:19:55;;;;;;;;;;;22.20;52.50;;;;;;5075592;28;19913;-38
2024/03/10 09:22:21;;;;;;;;;;;22.20;52.40;;;;;;5078405;28;19927;-37
2024/03/10 09:24:51;;;;;;;;;;;22.20;52.40;;;;;;5075309;28;19912;-37
2024/03/10 09:27:19;;;;;;;;;;;22.30;52.40;;;;;;5079011;28;20409;-37
2024/03/10 09:29:46;;;;;;;;;;;22.30;52.30;;;;;;5072010;28;19916;-39
2024/03/10 09:32:15;;;;;;;;;;;22.20;52.20;;;;;;5080393;28;19915;-37
2024/03/10 09:34:42;;;;;;;;;;;22.20;52.20;;;;;;5080056;28;19923;-37
2024/03/10 09:37:08;;;;;;;;;;;22.20;52.20;;;;;;5077895;28;19973;-38
2024/03/10 09:39:34;;;;;;;;;;;22.20;52.10;;;;;;5079329;28;20250;-38
2024/03/10 09:42:00;;;;;;;;;;;22.20;52.10;;;;;;5070325;28;19976;-37
2024/03/10 09:44:26;;;;;;;;;;;22.20;52.10;;;;;;5076425;28;19916;-37
2024/03/10 09:46:52;;;;;;;;;;;22.20;52.10;;;;;;5066957;28;19916;-36
2024/03/10 09:49:18;;;;;;;;;;;22.20;51.90;;;;;;5074859;28;19938;-39
2024/03/10 09:51:45;;;;;;;;;;;22.10;51.90;;;;;;5067297;28;19924;-37
2024/03/10 09:54:11;;;;;;;;;;;22.10;51.90;;;;;;5073218;28;19938;-37
2024/03/10 09:56:38;;;;;;;;;;;22.20;51.90;;;;;;5075772;28;20375;-37
2024/03/10 09:59:04;;;;;;;;;;;22.20;51.90;;;;;;5078719;28;19916;-37
2024/03/10 10:01:31;;;;;;;;;;;22.20;51.90;;;;;;5073500;28;19967;-38
2024/03/10 10:03:57;;;;;;;;;;;22.10;51.80;;;;;;5079774;28;19932;-38
2024/03/10 10:06:23;;;;;;;;;;;22.10;51.80;;;;;;5076030;28;19935;-39
2024/03/10 10:08:55;;;;;;;;;;;22.10;51.80;;;;;;5082935;28;20027;-38
2024/03/10 10:11:23;;;;;;;;;;;22.10;51.80;;;;;;5075357;28;19981;-38
2024/03/10 10:14:05;;;;;;;;;;;22.20;51.80;;;;;;5072197;28;19913;-38
2024/03/10 10:16:32;;;;;;;;;;;22.10;51.70;;;;;;5073691;28;19984;-38
2024/03/10 10:18:59;;;;;;;;;;;22.10;51.80;;;;;;5066975;28;19909;-38
2024/03/10 10:21:28;;;;;;;;;;;22.10;51.70;;;;;;5073410;28;20590;-37
2024/03/10 10:23:56;;;;;;;;;;;22.10;51.80;;;;;;5083763;28;19922;-39
2024/03/10 10:26:22;;;;;;;;;;;22.10;51.70;;;;;;5065908;28;19920;-39
2024/03/10 10:28:49;;;;;;;;;;;22.10;51.70;;;;;;5074217;28;20006;-37
2024/03/10 10:31:15;;;;;;;;;;;22.10;51.60;;;;;;5063625;28;19912;-39
2024/03/10 10:33:41;;;;;;;;;;;22.10;51.70;;;;;;5079880;28;19919;-37
2024/03/10 10:36:07;;;;;;;;;;;22.10;51.60;;;;;;5069462;28;20023;-37
2024/03/10 10:38:39;;;;;;;;;;;22.10;51.60;;;;;;5066640;28;19909;-38
2024/03/10 10:41:07;;;;;;;;;;;22.10;51.60;;;;;;5071437;28;19913;-39
2024/03/10 10:43:39;;;;;;;;;;;22.10;51.60;;;;;;5067940;28;19927;-37
2024/03/10 10:46:14;;;;;;;;;;;22.10;51.60;;;;;;5075088;28;19952;-37
2024/03/10 10:48:40;;;;;;;;;;;22.10;51.50;;;;;;5071839;28;19912;-37
2024/03/10 10:51:06;;;;;;;;;;;22.00;51.40;;;;;;5078401;28;19919;-38
2024/03/10 10:53:32;;;;;;;;;;;22.00;51.50;;;;;;5081893;28;19985;-38
2024/03/10 10:56:01;;;;;;;;;;;22.10;51.50;;;;;;5068876;28;19912;-38
2024/03/10 10:58:28;;;;;;;;;;;22.10;51.50;;;;;;5067322;28;19913;-38
2024/03/10 11:00:54;;;;;;;;;;;22.10;51.50;;;;;;5072787;28;19912;-38
2024/03/10 11:03:26;;;;;;;;;;;22.00;51.40;;;;;;5080001;28;19920;-37
2024/03/10 11:06:01;;;;;;;;;;;22.00;51.40;;;;;;5072528;28;19920;-37
2024/03/10 11:08:30;;;;;;;;;;;22.00;51.40;;;;;;5073456;28;20350;-37
2024/03/10 11:10:56;;;;;;;;;;;22.10;51.40;;;;;;5082267;28;19912;-40
2024/03/10 11:13:22;;;;;;;;;;;22.10;51.30;;;;;;5076648;28;19919;-36
2024/03/10 11:16:09;;;;;;;;;;;22.00;51.20;;;;;;5075813;28;20470;-36
2024/03/10 11:18:36;;;;;;;;;;;22.00;51.20;;;;;;5079815;28;19958;-37
2024/03/10 11:21:04;;;;;;;;;;;22.00;51.00;;;;;;5071221;28;20359;-37
2024/03/10 11:23:36;;;;;;;;;;;22.00;51.10;;;;;;5070422;28;19965;-37
2024/03/10 11:26:12;;;;;;;;;;;22.00;51.10;;;;;;5079156;28;19917;-37
2024/03/10 11:28:57;;;;;;;;;;;22.00;51.10;;;;;;5080588;28;19918;-37
2024/03/10 11:31:23;;;;;;;;;;;22.00;51.00;;;;;;5071248;28;19909;-37
2024/03/10 11:33:49;;;;;;;;;;;22.00;50.90;;;;;;5064843;28;19920;-39
2024/03/10 11:36:16;;;;;;;;;;;22.00;51.00;;;;;;5079721;28;19909;-38
2024/03/10 11:38:42;;;;;;;;;;;22.00;50.80;;;;;;5073618;28;19939;-38
2024/03/10 11:41:08;;;;;;;;;;;22.00;50.90;;;;;;5077183;28;19934;-38
2024/03/10 11:43:35;;;;;;;;;;;22.00;50.80;;;;;;5081732;28;19920;-38
2024/03/10 11:46:04;;;;;;;;;;;22.00;50.80;;;;;;5074630;28;19963;-38
2024/03/10 11:48:31;;;;;;;;;;;21.90;50.70;;;;;;5081773;28;19915;-38
2024/03/10 11:50:57;;;;;;;;;;;22.00;50.80;;;;;;5072317;28;20254;-38
2024/03/10 11:53:26;;;;;;;;;;;22.00;50.70;;;;;;5075157;28;19919;-38
2024/03/10 11:55:56;;;;;;;;;;;22.00;50.70;;;;;;5074376;28;19916;-38
2024/03/10 11:58:21;;;;;;;;;;;22.00;50.60;;;;;;5082191;28;19908;-40
2024/03/10 12:00:47;;;;;;;;;;;21.90;50.60;;;;;;5078659;28;19915;-38
2024/03/10 12:03:13;;;;;;;;;;;22.00;50.70;;;;;;5063944;28;19916;-38
2024/03/10 12:05:39;;;;;;;;;;;22.00;50.70;;;;;;5071379;28;19943;-38
2024/03/10 12:08:05;;;;;;;;;;;22.00;50.70;;;;;;5082132;28;19919;-38
2024/03/10 12:10:32;;;;;;;;;;;22.00;50.70;;;;;;5063617;28;19943;-38
2024/03/10 12:12:58;;;;;;;;;;;22.00;50.70;;;;;;5068827;28;19938;-39
2024/03/10 12:15:25;;;;;;;;;;;21.90;50.60;;;;;;5074991;28;19913;-38
2024/03/10 12:17:51;;;;;;;;;;;21.90;51.00;;;;;;5072707;28;19912;-38
2024/03/10 12:20:18;;;;;;;;;;;22.00;51.00;;;;;;5081362;28;19908;-38
2024/03/10 12:22:44;;;;;;;;;;;22.00;51.30;;;;;;5072853;28;19920;-38
2024/03/10 12:25:11;;;;;;;;;;;22.00;51.60;;;;;;5075959;28;19978;-38
2024/03/10 12:27:40;;;;;;;;;;;21.90;52.10;;;;;;5078008;28;19908;-37
2024/03/10 12:30:13;;;;;;;;;;;21.90;52.30;;;;;;5071519;28;19933;-36
2024/03/10 12:32:40;;;;;;;;;;;21.90;52.70;;;;;;5074729;28;19956;-37
2024/03/10 12:35:08;;;;;;;;;;;21.90;52.60;;;;;;5081332;28;19920;-36
2024/03/10 12:37:35;;;;;;;;;;;21.90;52.90;;;;;;5066303;28;20254;-36
2024/03/10 12:40:04;;;;;;;;;;;21.90;52.70;;;;;;5082004;28;19935;-36
2024/03/10 12:42:30;;;;;;;;;;;21.90;52.50;;;;;;5081026;28;19927;-37
2024/03/10 12:44:56;;;;;;;;;;;21.90;52.50;;;;;;5069004;28;19940;-37
2024/03/10 12:47:22;;;;;;;;;;;21.90;52.60;;;;;;5076942;28;20339;-37
2024/03/10 12:49:48;;;;;;;;;;;21.80;52.60;;;;;;5080366;28;19919;-38
2024/03/10 12:52:13;;;;;;;;;;;21.80;52.60;;;;;;5073774;28;19981;-38
2024/03/10 12:54:39;;;;;;;;;;;21.90;52.60;;;;;;5074998;28;19934;-38
2024/03/10 12:57:05;;;;;;;;;;;21.90;52.40;;;;;;5075387;28;19919;-38
2024/03/10 12:59:32;;;;;;;;;;;21.90;52.20;;;;;;5081022;28;20427;-35
2024/03/10 13:01:58;;;;;;;;;;;21.90;52.20;;;;;;5104022;28;20634;-36
2024/03/10 13:04:23;;;;;;;;;;;21.80;52.10;;;;;;5077169;28;19916;-36
2024/03/10 13:06:49;;;;;;;;;;;21.80;52.00;;;;;;5079676;28;20436;-36
2024/03/10 13:09:16;;;;;;;;;;;21.80;51.90;;;;;;5074741;28;19912;-36
2024/03/10 13:11:42;;;;;;;;;;;21.90;51.80;;;;;;5080800;28;19916;-37
2024/03/10 13:14:08;;;;;;;;;;;21.90;51.70;;;;;;5081196;28;19969;-36
2024/03/10 13:16:34;;;;;;;;;;;21.80;51.60;;;;;;5066016;28;19913;-37
2024/03/10 13:19:01;;;;;;;;;;;21.80;51.60;;;;;;5072150;28;19912;-36
2024/03/10 13:21:27;;;;;;;;;;;21.80;51.50;;;;;;5073645;28;19912;-37
2024/03/10 13:23:53;;;;;;;;;;;21.80;51.40;;;;;;5075622;28;19976;-36
2024/03/10 13:26:18;;;;;;;;;;;21.80;51.20;;;;;;5070043;28;19913;-36
2024/03/10 13:28:45;;;;;;;;;;;21.80;51.10;;;;;;5079477;28;19919;-36
2024/03/10 13:31:11;;;;;;;;;;;21.80;51.10;;;;;;5063989;28;19963;-36
2024/03/10 13:33:40;;;;;;;;;;;21.80;51.10;;;;;;5063504;28;19917;-36
2024/03/10 13:36:26;;;;;;;;;;;21.80;51.00;;;;;;5096200;28;19912;-36
2024/03/10 13:38:51;;;;;;;;;;;21.70;51.00;;;;;;5099687;28;19922;-36
2024/03/10 13:41:17;;;;;;;;;;;21.80;50.90;;;;;;5107153;28;19912;-37
2024/03/10 13:43:43;;;;;;;;;;;21.90;50.80;;;;;;5092969;28;20460;-36
2024/03/10 13:46:12;;;;;;;;;;;21.80;50.70;;;;;;5094596;28;19915;-37
2024/03/10 13:48:37;;;;;;;;;;;21.80;50.70;;;;;;5090009;28;19968;-36
2024/03/10 13:51:04;;;;;;;;;;;21.80;50.70;;;;;;5090024;28;19929;-36
2024/03/10 13:53:30;;;;;;;;;;;21.70;50.60;;;;;;5071754;28;20093;-37
2024/03/10 13:55:56;;;;;;;;;;;21.80;50.70;;;;;;5089449;28;19928;-39
2024/03/10 13:58:22;;;;;;;;;;;21.80;50.50;;;;;;5089633;28;20015;-37
2024/03/10 14:00:48;;;;;;;;;;;21.80;50.50;;;;;;5090555;28;20129;-38
2024/03/10 14:03:14;;;;;;;;;;;21.80;50.50;;;;;;5090297;28;19920;-37
2024/03/10 14:05:41;;;;;;;;;;;21.80;50.30;;;;;;5066357;28;19919;-37
2024/03/10 14:08:06;;;;;;;;;;;21.80;50.40;;;;;;5093386;28;19918;-37
2024/03/10 14:10:32;;;;;;;;;;;21.80;50.20;;;;;;5090899;28;19976;-38
2024/03/10 14:12:58;;;;;;;;;;;21.80;50.10;;;;;;5086948;28;19912;-38
2024/03/10 14:15:24;;;;;;;;;;;21.90;50.10;;;;;;5076011;28;19913;-37
2024/03/10 14:17:50;;;;;;;;;;;21.90;50.10;;;;;;5072039;28;19958;-38
2024/03/10 14:20:18;;;;;;;;;;;21.80;50.00;;;;;;5077659;28;19912;-37
2024/03/10 14:22:44;;;;;;;;;;;21.80;50.00;;;;;;5077127;28;19978;-38
2024/03/10 14:25:11;;;;;;;;;;;21.80;49.90;;;;;;5071539;28;20032;-38
2024/03/10 14:27:38;;;;;;;;;;;21.80;50.00;;;;;;5076690;28;19943;-38
2024/03/10 14:30:09;;;;;;;;;;;21.90;49.90;;;;;;5075696;28;19919;-37
2024/03/10 14:32:36;;;;;;;;;;;21.90;49.90;;;;;;5077880;28;19916;-38
2024/03/10 14:35:05;;;;;;;;;;;21.90;49.80;;;;;;5071952;28;20429;-37
2024/03/10 14:37:34;;;;;;;;;;;21.90;49.80;;;;;;5078300;28;19913;-37